sensor_id;sensor_type;location;lat;lon;timestamp;P1;durP1;ratioP1;P2;durP2;ratioP2
8885;SDS011;4479;51.162;13.906;2022-10-16T00:05:42;8.70;;;7.80;;
8885;SDS011;4479;51.162;13.906;2022-10-16T00:15:47;8.77;;;7.47;;
8885;SDS011;4479;51.162;13.906;2022-10-16T00:25:55;8.70;;;7.80;;
8885;SDS011;4479;51.162;13.906;2022-10-16T00:36:00;7.97;;;7.17;;
8885;SDS011;4479;51.162;13.906;2022-10-16T00:46:04;8.23;;;7.03;;
8885;SDS011;4479;51.162;13.906;2022-10-16T00:56:16;8.30;;;7.40;;
8885;SDS011;4479;51.162;13.906;2022-10-16T01:06:21;7.73;;;6.93;;
8885;SDS011;4479;51.162;13.906;2022-10-16T01:16:31;7.87;;;6.90;;
8885;SDS011;4479;51.162;13.906;2022-10-16T01:26:42;9.03;;;7.50;;
8885;SDS011;4479;51.162;13.906;2022-10-16T01:37:09;8.67;;;7.77;;
8885;SDS011;4479;51.162;13.906;2022-10-16T01:47:18;9.60;;;8.60;;
8885;SDS011;4479;51.162;13.906;2022-10-16T01:57:23;9.83;;;8.67;;
8885;SDS011;4479;51.162;13.906;2022-10-16T02:07:28;10.37;;;8.90;;
8885;SDS011;4479;51.162;13.906;2022-10-16T02:17:31;9.10;;;8.20;;
8885;SDS011;4479;51.162;13.906;2022-10-16T02:27:37;8.47;;;7.57;;
8885;SDS011;4479;51.162;13.906;2022-10-16T02:37:44;9.03;;;8.13;;
8885;SDS011;4479;51.162;13.906;2022-10-16T02:47:49;10.83;;;8.03;;
8885;SDS011;4479;51.162;13.906;2022-10-16T02:57:52;8.00;;;7.30;;
8885;SDS011;4479;51.162;13.906;2022-10-16T03:07:57;8.40;;;7.47;;
8885;SDS011;4479;51.162;13.906;2022-10-16T03:18:01;7.53;;;6.83;;
8885;SDS011;4479;51.162;13.906;2022-10-16T04:25:53;7.27;;;6.57;;
8885;SDS011;4479;51.162;13.906;2022-10-16T04:35:56;8.43;;;7.50;;
8885;SDS011;4479;51.162;13.906;2022-10-16T04:46:01;7.10;;;6.50;;
8885;SDS011;4479;51.162;13.906;2022-10-16T04:56:05;6.80;;;6.20;;
8885;SDS011;4479;51.162;13.906;2022-10-16T05:06:09;7.13;;;6.53;;
8885;SDS011;4479;51.162;13.906;2022-10-16T05:16:12;6.90;;;6.30;;
8885;SDS011;4479;51.162;13.906;2022-10-16T05:26:20;7.10;;;6.40;;
8885;SDS011;4479;51.162;13.906;2022-10-16T05:36:23;6.80;;;6.20;;
8885;SDS011;4479;51.162;13.906;2022-10-16T05:46:28;6.97;;;6.37;;
8885;SDS011;4479;51.162;13.906;2022-10-16T05:56:32;6.63;;;6.03;;
8885;SDS011;4479;51.162;13.906;2022-10-16T06:06:36;8.00;;;6.93;;
8885;SDS011;4479;51.162;13.906;2022-10-16T06:16:40;8.97;;;8.10;;
8885;SDS011;4479;51.162;13.906;2022-10-16T06:26:43;9.67;;;8.77;;
8885;SDS011;4479;51.162;13.906;2022-10-16T06:36:46;9.60;;;8.70;;
8885;SDS011;4479;51.162;13.906;2022-10-16T06:46:50;9.20;;;8.30;;
8885;SDS011;4479;51.162;13.906;2022-10-16T06:56:54;9.30;;;8.40;;
8885;SDS011;4479;51.162;13.906;2022-10-16T07:06:59;9.30;;;7.93;;
8885;SDS011;4479;51.162;13.906;2022-10-16T07:17:03;8.37;;;7.67;;
8885;SDS011;4479;51.162;13.906;2022-10-16T07:27:07;7.10;;;6.50;;
8885;SDS011;4479;51.162;13.906;2022-10-16T07:37:10;6.40;;;5.90;;
8885;SDS011;4479;51.162;13.906;2022-10-16T07:47:15;6.53;;;5.93;;
8885;SDS011;4479;51.162;13.906;2022-10-16T07:57:18;4.20;;;3.90;;
8885;SDS011;4479;51.162;13.906;2022-10-16T08:07:23;4.07;;;3.77;;
8885;SDS011;4479;51.162;13.906;2022-10-16T08:17:26;2.53;;;2.33;;
8885;SDS011;4479;51.162;13.906;2022-10-16T08:27:32;2.30;;;2.20;;
8885;SDS011;4479;51.162;13.906;2022-10-16T08:37:35;2.53;;;2.33;;
8885;SDS011;4479;51.162;13.906;2022-10-16T08:47:42;3.70;;;3.40;;
8885;SDS011;4479;51.162;13.906;2022-10-16T08:57:51;3.33;;;3.03;;
8885;SDS011;4479;51.162;13.906;2022-10-16T09:07:57;4.80;;;4.40;;
8885;SDS011;4479;51.162;13.906;2022-10-16T09:18:05;5.90;;;5.40;;
8885;SDS011;4479;51.162;13.906;2022-10-16T09:28:13;5.63;;;5.23;;
8885;SDS011;4479;51.162;13.906;2022-10-16T09:38:23;4.77;;;4.30;;
8885;SDS011;4479;51.162;13.906;2022-10-16T09:48:30;3.10;;;2.90;;
8885;SDS011;4479;51.162;13.906;2022-10-16T09:58:37;2.00;;;1.90;;
8885;SDS011;4479;51.162;13.906;2022-10-16T10:19:58;1.80;;;1.33;;
8885;SDS011;4479;51.162;13.906;2022-10-16T10:30:02;2.00;;;1.70;;
8885;SDS011;4479;51.162;13.906;2022-10-16T10:40:15;1.73;;;1.63;;
8885;SDS011;4479;51.162;13.906;2022-10-16T10:50:30;1.47;;;1.37;;
8885;SDS011;4479;51.162;13.906;2022-10-16T11:00:43;1.00;;;1.00;;
8885;SDS011;4479;51.162;13.906;2022-10-16T11:10:50;1.10;;;1.00;;
8885;SDS011;4479;51.162;13.906;2022-10-16T11:21:00;0.70;;;0.70;;
8885;SDS011;4479;51.162;13.906;2022-10-16T11:31:08;0.57;;;0.57;;
8885;SDS011;4479;51.162;13.906;2022-10-16T11:41:20;0.40;;;0.40;;
8885;SDS011;4479;51.162;13.906;2022-10-16T11:51:29;0.60;;;0.60;;
8885;SDS011;4479;51.162;13.906;2022-10-16T12:01:38;0.50;;;0.50;;
8885;SDS011;4479;51.162;13.906;2022-10-16T12:11:43;0.60;;;0.60;;
8885;SDS011;4479;51.162;13.906;2022-10-16T12:21:50;0.40;;;0.40;;
8885;SDS011;4479;51.162;13.906;2022-10-16T12:31:55;2.03;;;0.63;;
8885;SDS011;4479;51.162;13.906;2022-10-16T12:42:03;0.50;;;0.50;;
8885;SDS011;4479;51.162;13.906;2022-10-16T12:52:22;0.40;;;0.40;;
8885;SDS011;4479;51.162;13.906;2022-10-16T13:02:55;0.97;;;0.60;;
8885;SDS011;4479;51.162;13.906;2022-10-16T13:13:15;0.60;;;0.60;;
8885;SDS011;4479;51.162;13.906;2022-10-16T13:23:33;0.60;;;0.60;;
8885;SDS011;4479;51.162;13.906;2022-10-16T13:33:45;1.10;;;1.00;;
8885;SDS011;4479;51.162;13.906;2022-10-16T13:43:52;0.73;;;0.57;;
8885;SDS011;4479;51.162;13.906;2022-10-16T13:53:57;0.50;;;0.50;;
8885;SDS011;4479;51.162;13.906;2022-10-16T14:04:04;0.60;;;0.60;;
8885;SDS011;4479;51.162;13.906;2022-10-16T14:14:09;0.87;;;0.70;;
8885;SDS011;4479;51.162;13.906;2022-10-16T14:24:21;0.60;;;0.60;;
8885;SDS011;4479;51.162;13.906;2022-10-16T14:34:28;0.70;;;0.70;;
8885;SDS011;4479;51.162;13.906;2022-10-16T14:44:34;0.83;;;0.83;;
8885;SDS011;4479;51.162;13.906;2022-10-16T14:54:41;1.00;;;0.70;;
8885;SDS011;4479;51.162;13.906;2022-10-16T15:04:46;0.90;;;0.87;;
8885;SDS011;4479;51.162;13.906;2022-10-16T15:14:50;1.87;;;1.00;;
8885;SDS011;4479;51.162;13.906;2022-10-16T15:24:54;1.37;;;0.80;;
8885;SDS011;4479;51.162;13.906;2022-10-16T15:34:59;1.50;;;1.00;;
8885;SDS011;4479;51.162;13.906;2022-10-16T15:45:05;5.17;;;3.90;;
8885;SDS011;4479;51.162;13.906;2022-10-16T15:55:13;6.00;;;4.40;;
8885;SDS011;4479;51.162;13.906;2022-10-16T16:05:19;4.23;;;2.80;;
8885;SDS011;4479;51.162;13.906;2022-10-16T16:15:22;3.53;;;2.87;;
8885;SDS011;4479;51.162;13.906;2022-10-16T16:25:27;2.30;;;1.70;;
8885;SDS011;4479;51.162;13.906;2022-10-16T16:35:30;2.97;;;2.27;;
8885;SDS011;4479;51.162;13.906;2022-10-16T16:45:36;2.23;;;2.03;;
8885;SDS011;4479;51.162;13.906;2022-10-16T16:55:39;2.47;;;1.77;;
8885;SDS011;4479;51.162;13.906;2022-10-16T17:39:36;14.70;;;13.20;;
8885;SDS011;4479;51.162;13.906;2022-10-16T17:49:40;6.20;;;5.60;;
8885;SDS011;4479;51.162;13.906;2022-10-16T17:59:44;4.40;;;4.00;;
8885;SDS011;4479;51.162;13.906;2022-10-16T18:09:49;2.70;;;2.50;;
8885;SDS011;4479;51.162;13.906;2022-10-16T18:19:54;3.67;;;3.37;;
8885;SDS011;4479;51.162;13.906;2022-10-16T18:30:01;3.27;;;2.53;;
8885;SDS011;4479;51.162;13.906;2022-10-16T18:40:05;3.53;;;3.23;;
8885;SDS011;4479;51.162;13.906;2022-10-16T18:50:08;3.40;;;3.10;;
8885;SDS011;4479;51.162;13.906;2022-10-16T19:00:15;4.33;;;3.07;;
8885;SDS011;4479;51.162;13.906;2022-10-16T19:10:21;3.00;;;2.70;;
8885;SDS011;4479;51.162;13.906;2022-10-16T19:20:27;4.40;;;3.03;;
8885;SDS011;4479;51.162;13.906;2022-10-16T19:30:34;3.30;;;2.87;;
8885;SDS011;4479;51.162;13.906;2022-10-16T19:40:39;3.30;;;3.00;;
8885;SDS011;4479;51.162;13.906;2022-10-16T19:50:46;2.80;;;2.57;;
8885;SDS011;4479;51.162;13.906;2022-10-16T20:00:55;2.87;;;2.57;;
8885;SDS011;4479;51.162;13.906;2022-10-16T20:10:59;2.90;;;2.70;;
8885;SDS011;4479;51.162;13.906;2022-10-16T20:21:09;3.30;;;2.40;;
8885;SDS011;4479;51.162;13.906;2022-10-16T20:31:15;2.37;;;2.17;;
8885;SDS011;4479;51.162;13.906;2022-10-16T20:41:23;3.13;;;2.20;;
8885;SDS011;4479;51.162;13.906;2022-10-16T20:51:26;2.57;;;2.37;;
8885;SDS011;4479;51.162;13.906;2022-10-16T21:01:33;2.67;;;2.43;;
8885;SDS011;4479;51.162;13.906;2022-10-16T21:11:38;4.87;;;2.40;;
8885;SDS011;4479;51.162;13.906;2022-10-16T21:21:42;3.30;;;2.17;;
8885;SDS011;4479;51.162;13.906;2022-10-16T21:31:46;2.30;;;2.10;;
8885;SDS011;4479;51.162;13.906;2022-10-16T21:41:50;2.40;;;2.20;;
8885;SDS011;4479;51.162;13.906;2022-10-16T21:51:55;2.83;;;1.93;;
8885;SDS011;4479;51.162;13.906;2022-10-16T22:02:00;3.53;;;1.80;;
8885;SDS011;4479;51.162;13.906;2022-10-16T22:12:03;2.50;;;2.10;;
8885;SDS011;4479;51.162;13.906;2022-10-16T22:22:08;3.07;;;2.30;;
8885;SDS011;4479;51.162;13.906;2022-10-16T22:32:11;2.63;;;1.97;;
8885;SDS011;4479;51.162;13.906;2022-10-16T22:42:16;2.00;;;1.80;;
8885;SDS011;4479;51.162;13.906;2022-10-16T22:52:19;3.10;;;2.10;;
8885;SDS011;4479;51.162;13.906;2022-10-16T23:02:23;3.00;;;1.87;;
8885;SDS011;4479;51.162;13.906;2022-10-16T23:12:28;1.93;;;1.73;;
8885;SDS011;4479;51.162;13.906;2022-10-16T23:22:32;2.73;;;2.00;;
8885;SDS011;4479;51.162;13.906;2022-10-16T23:32:35;2.60;;;1.90;;
8885;SDS011;4479;51.162;13.906;2022-10-16T23:42:40;3.97;;;2.33;;
8885;SDS011;4479;51.162;13.906;2022-10-16T23:52:42;3.17;;;2.30;;
